createdAt,value
2022-10-10T00:00:48.755Z,60.60
2022-10-10T00:03:15.612Z,60.61
2022-10-10T00:05:43.089Z,60.73
2022-10-10T00:08:09.914Z,60.81
2022-10-10T00:10:37.373Z,60.14
2022-10-10T00:15:49.988Z,60.20
2022-10-10T00:18:17.320Z,60.57
2022-10-10T00:20:43.893Z,60.55
2022-10-10T00:23:10.942Z,60.87
2022-10-10T00:25:37.873Z,61.29
2022-10-10T00:28:05.621Z,61.30
2022-10-10T00:30:32.986Z,61.18
2022-10-10T00:35:45.162Z,60.73
2022-10-10T00:38:13.168Z,60.86
2022-10-10T00:40:48.554Z,61.07
2022-10-10T00:43:16.849Z,61.03
2022-10-10T00:45:45.749Z,61.41
2022-10-10T00:48:15.252Z,60.86
2022-10-10T00:50:48.207Z,60.95
2022-10-10T00:53:18.294Z,61.09
2022-10-10T00:55:45.860Z,60.90
2022-10-10T00:58:13.526Z,61.13
2022-10-10T01:00:40.322Z,61.04
2022-10-10T01:03:07.206Z,61.17
2022-10-10T01:05:34.320Z,60.84
2022-10-10T01:08:04.201Z,61.09
2022-10-10T01:10:39.356Z,61.54
2022-10-10T01:13:18.755Z,61.35
2022-10-10T01:15:59.848Z,61.11
2022-10-10T01:18:35.937Z,61.26
2022-10-10T01:21:52.365Z,61.27
2022-10-10T01:24:50.455Z,61.57
2022-10-10T01:27:17.288Z,61.77
2022-10-10T01:30:12.226Z,61.76
2022-10-10T01:32:54.227Z,61.72
2022-10-10T01:35:35.953Z,62.04
2022-10-10T01:38:28.416Z,61.62
2022-10-10T01:41:03.955Z,61.29
2022-10-10T01:43:31.297Z,61.42
2022-10-10T01:45:57.916Z,61.49
2022-10-10T01:48:31.341Z,61.77
2022-10-10T01:51:09.740Z,61.83
2022-10-10T01:53:39.066Z,62.03
2022-10-10T01:56:09.662Z,61.72
2022-10-10T01:59:09.486Z,61.86
2022-10-10T02:01:40.462Z,62.06
2022-10-10T02:04:13.528Z,61.89
2022-10-10T02:06:52.082Z,61.84
2022-10-10T02:09:28.278Z,61.73
2022-10-10T02:11:56.535Z,62.08
2022-10-10T02:14:28.946Z,62.27
2022-10-10T02:16:57.625Z,62.41
2022-10-10T02:19:25.363Z,62.11
2022-10-10T02:21:53.534Z,62.59
2022-10-10T02:24:23.867Z,62.28
2022-10-10T02:26:59.813Z,62.18
2022-10-10T02:29:34.102Z,62.51
2022-10-10T02:32:09.583Z,62.44
2022-10-10T02:34:40.374Z,62.35
2022-10-10T02:37:12.437Z,62.39
2022-10-10T02:39:50.130Z,62.51
2022-10-10T02:42:20.699Z,62.48
2022-10-10T02:47:41.339Z,62.67
2022-10-10T02:50:08.474Z,62.33
2022-10-10T02:52:35.294Z,62.39
2022-10-10T02:55:02.114Z,62.50
2022-10-10T02:57:28.926Z,62.28
2022-10-10T02:59:55.624Z,62.34
2022-10-10T03:02:22.342Z,62.28
2022-10-10T03:04:49.047Z,62.37
2022-10-10T03:07:15.861Z,62.27
2022-10-10T03:09:42.732Z,61.96
2022-10-10T03:12:09.540Z,62.47
2022-10-10T03:14:36.449Z,62.27
2022-10-10T03:17:03.145Z,62.14
2022-10-10T03:19:29.876Z,62.18
2022-10-10T03:21:56.503Z,61.98
2022-10-10T03:24:23.103Z,62.18
2022-10-10T03:26:49.697Z,62.29
2022-10-10T03:29:16.287Z,62.16
2022-10-10T03:31:43.241Z,62.41
2022-10-10T03:34:09.881Z,62.29
2022-10-10T03:36:36.605Z,62.42
2022-10-10T03:39:04.142Z,62.62
2022-10-10T03:41:31.200Z,62.66
2022-10-10T03:43:57.819Z,62.44
2022-10-10T03:46:24.438Z,62.27
2022-10-10T03:48:51.040Z,62.40
2022-10-10T03:51:17.695Z,62.37
2022-10-10T03:53:44.582Z,62.42
2022-10-10T03:56:11.998Z,62.53
2022-10-10T03:58:38.567Z,62.64
2022-10-10T04:01:05.260Z,62.55
2022-10-10T04:03:32.325Z,62.64
2022-10-10T04:05:59.021Z,62.17
2022-10-10T04:08:25.970Z,62.67
2022-10-10T04:10:53.990Z,62.74
2022-10-10T04:13:21.662Z,62.67
2022-10-10T04:15:52.156Z,62.70
2022-10-10T04:18:19.781Z,62.86
2022-10-10T04:20:46.775Z,62.82
2022-10-10T04:23:13.600Z,62.22
2022-10-10T04:25:41.811Z,62.43
2022-10-10T04:28:12.266Z,62.91
2022-10-10T04:30:39.059Z,63.02
2022-10-10T04:33:05.590Z,62.77
2022-10-10T04:35:32.379Z,62.84
2022-10-10T04:37:59.131Z,62.88
2022-10-10T04:40:26.991Z,62.82
2022-10-10T04:42:54.737Z,62.73
2022-10-10T04:45:21.697Z,62.99
2022-10-10T04:47:48.379Z,62.56
2022-10-10T04:50:15.004Z,62.97
2022-10-10T04:52:41.792Z,62.85
2022-10-10T04:55:08.618Z,62.91
2022-10-10T04:57:35.355Z,63.23
2022-10-10T05:00:02.535Z,62.86
2022-10-10T05:02:29.135Z,63.29
2022-10-10T05:04:55.981Z,63.27
2022-10-10T05:07:22.684Z,63.03
2022-10-10T05:09:49.293Z,63.22
2022-10-10T05:12:16.163Z,62.85
2022-10-10T05:14:47.817Z,62.64
2022-10-10T05:17:15.048Z,62.70
2022-10-10T05:19:41.793Z,62.83
2022-10-10T05:22:08.367Z,62.77
2022-10-10T05:24:34.990Z,63.20
2022-10-10T05:27:01.654Z,63.11
2022-10-10T05:29:28.790Z,62.66
2022-10-10T05:31:55.777Z,63.06
2022-10-10T05:34:22.648Z,62.80
2022-10-10T05:36:49.387Z,63.13
2022-10-10T05:39:15.997Z,62.88
2022-10-10T05:41:42.608Z,62.94
2022-10-10T05:44:10.175Z,62.50
2022-10-10T05:46:36.998Z,62.66
2022-10-10T05:49:03.760Z,63.18
2022-10-10T05:51:30.386Z,62.84
2022-10-10T05:53:57.531Z,63.08
2022-10-10T05:56:24.245Z,63.30
2022-10-10T05:58:51.889Z,62.92
2022-10-10T06:01:18.662Z,63.22
2022-10-10T06:03:45.373Z,62.86
2022-10-10T06:06:12.087Z,63.12
2022-10-10T06:08:38.916Z,63.12
2022-10-10T06:11:11.184Z,63.07
2022-10-10T06:13:38.982Z,63.14
2022-10-10T06:16:05.740Z,63.21
2022-10-10T06:18:32.296Z,63.45
2022-10-10T06:21:07.232Z,62.84
2022-10-10T06:23:34.651Z,63.29
2022-10-10T06:26:01.229Z,62.98
2022-10-10T06:28:27.905Z,62.42
2022-10-10T06:30:54.716Z,62.61
2022-10-10T06:33:21.416Z,62.95
2022-10-10T06:35:49.307Z,63.31
2022-10-10T06:38:17.100Z,62.97
2022-10-10T06:40:43.988Z,62.99
2022-10-10T06:43:12.603Z,62.41
2022-10-10T06:45:41.369Z,62.35
2022-10-10T06:48:08.644Z,62.08
2022-10-10T06:50:35.598Z,62.40
2022-10-10T06:53:02.306Z,62.72
2022-10-10T06:55:28.916Z,62.91
2022-10-10T06:57:55.735Z,62.74
2022-10-10T07:00:22.331Z,62.92
2022-10-10T07:02:49.120Z,62.61
2022-10-10T07:05:17.931Z,62.23
2022-10-10T07:07:45.574Z,62.23
2022-10-10T07:10:14.840Z,62.46
2022-10-10T07:12:44.762Z,62.19
2022-10-10T07:15:12.649Z,62.29
2022-10-10T07:17:39.556Z,61.99
2022-10-10T07:20:06.741Z,62.09
2022-10-10T07:22:33.781Z,62.31
2022-10-10T07:25:00.588Z,62.22
2022-10-10T07:27:27.596Z,62.17
2022-10-10T07:29:54.707Z,62.29
2022-10-10T07:32:21.568Z,62.21
2022-10-10T07:34:48.100Z,62.18
2022-10-10T07:37:14.799Z,62.16
2022-10-10T07:39:41.575Z,62.19
2022-10-10T07:42:08.152Z,62.46
2022-10-10T07:44:35.007Z,62.08
2022-10-10T07:47:02.052Z,62.14
2022-10-10T07:49:28.963Z,62.20
2022-10-10T07:51:58.925Z,62.33
2022-10-10T07:54:29.030Z,62.24
2022-10-10T07:56:56.025Z,62.88
2022-10-10T07:59:23.233Z,63.38
2022-10-10T08:01:50.842Z,63.10
2022-10-10T08:04:18.236Z,63.31
2022-10-10T08:06:44.832Z,63.19
2022-10-10T08:09:11.531Z,62.76
2022-10-10T08:11:38.111Z,62.46
2022-10-10T08:14:04.772Z,62.31
2022-10-10T08:16:31.687Z,61.98
2022-10-10T08:18:58.526Z,62.21
2022-10-10T08:21:25.445Z,62.41
2022-10-10T08:23:52.304Z,62.66
2022-10-10T08:26:20.126Z,62.59
2022-10-10T08:28:48.630Z,62.14
2022-10-10T08:31:19.236Z,62.21
2022-10-10T08:33:47.381Z,62.23
2022-10-10T08:36:16.827Z,61.86
2022-10-10T08:38:43.966Z,62.37
2022-10-10T08:41:34.446Z,62.12
2022-10-10T08:44:07.638Z,62.27
2022-10-10T08:46:44.587Z,62.25
2022-10-10T08:49:49.850Z,62.23
2022-10-10T08:52:43.410Z,62.27
2022-10-10T08:55:21.773Z,62.35
2022-10-10T08:57:50.570Z,62.18
2022-10-10T09:00:22.349Z,62.20
2022-10-10T09:02:54.540Z,62.12
2022-10-10T09:05:36.733Z,62.11
2022-10-10T09:08:27.158Z,62.16
2022-10-10T09:11:05.948Z,62.15
2022-10-10T09:14:08.078Z,62.01
2022-10-10T09:16:56.187Z,61.91
2022-10-10T09:19:33.484Z,62.00
2022-10-10T09:22:05.090Z,61.80
2022-10-10T09:24:41.113Z,61.71
2022-10-10T09:27:15.265Z,61.66
2022-10-10T09:29:50.348Z,61.80
2022-10-10T09:32:30.376Z,61.56
2022-10-10T09:35:14.354Z,61.75
2022-10-10T09:37:47.311Z,61.05
2022-10-10T09:40:42.581Z,61.65
2022-10-10T09:43:15.465Z,61.65
2022-10-10T09:45:52.506Z,61.57
2022-10-10T09:48:22.098Z,61.49
2022-10-10T09:50:48.630Z,61.69
2022-10-10T09:53:16.609Z,61.62
2022-10-10T09:55:46.403Z,61.50
2022-10-10T09:58:25.082Z,61.39
2022-10-10T10:00:53.758Z,61.31
2022-10-10T10:03:22.212Z,61.54
2022-10-10T10:06:01.836Z,61.49
2022-10-10T10:08:31.749Z,61.30
2022-10-10T10:10:59.769Z,61.40
2022-10-10T10:13:37.553Z,61.32
2022-10-10T10:16:13.538Z,61.32
2022-10-10T10:18:47.714Z,61.57
2022-10-10T10:21:21.127Z,61.95
2022-10-10T10:24:01.347Z,61.89
2022-10-10T10:26:46.154Z,61.58
2022-10-10T10:29:29.752Z,61.50
2022-10-10T10:32:15.023Z,61.60
2022-10-10T10:34:56.347Z,61.30
2022-10-10T10:37:43.597Z,61.13
2022-10-10T10:40:22.435Z,61.17
2022-10-10T10:43:03.839Z,61.19
2022-10-10T10:46:09.365Z,61.20
2022-10-10T10:49:01.072Z,60.72
2022-10-10T10:51:42.782Z,60.93
2022-10-10T10:54:31.387Z,60.37
2022-10-10T10:57:32.870Z,60.81
2022-10-10T11:01:22.619Z,60.50
2022-10-10T11:05:21.340Z,60.41
2022-10-10T11:06:59.804Z,60.24
2022-10-10T11:09:50.077Z,60.66
2022-10-10T11:12:29.226Z,60.35
2022-10-10T11:15:19.261Z,60.23
2022-10-10T11:17:59.699Z,60.11
2022-10-10T11:20:46.378Z,59.98
2022-10-10T11:23:38.816Z,60.17
2022-10-10T11:26:10.311Z,59.96
2022-10-10T11:28:49.132Z,60.24
2022-10-10T11:31:20.256Z,60.48
2022-10-10T11:33:54.344Z,60.23
2022-10-10T11:36:26.171Z,60.30
2022-10-10T11:39:15.441Z,60.53
2022-10-10T11:41:53.982Z,60.69
2022-10-10T11:44:32.992Z,60.50
2022-10-10T11:47:09.379Z,60.44
2022-10-10T11:49:54.224Z,60.47
2022-10-10T11:52:56.398Z,60.62
2022-10-10T11:55:49.198Z,60.83
2022-10-10T11:58:40.627Z,60.73
2022-10-10T12:01:18.665Z,60.76
2022-10-10T12:03:45.525Z,60.97
2022-10-10T12:06:19.862Z,61.10
2022-10-10T12:09:15.919Z,61.03
2022-10-10T12:32:19.403Z,61.47
2022-10-10T12:34:48.649Z,61.55
2022-10-10T12:37:34.946Z,61.49
2022-10-10T12:40:07.298Z,61.71
2022-10-10T12:43:01.586Z,61.83
2022-10-10T12:45:31.167Z,61.95
2022-10-10T12:48:07.135Z,61.96
2022-10-10T12:50:43.700Z,62.01
2022-10-10T12:53:13.210Z,62.08
2022-10-10T12:55:46.087Z,61.93
2022-10-10T12:58:30.179Z,62.13
2022-10-10T13:01:00.623Z,61.96
2022-10-10T13:03:39.901Z,62.16
2022-10-10T13:06:18.452Z,62.01
2022-10-10T13:08:45.576Z,62.17
2022-10-10T13:11:14.905Z,61.96
2022-10-10T13:13:50.866Z,62.36
2022-10-10T13:16:20.232Z,62.30
2022-10-10T13:18:50.977Z,62.15
2022-10-10T13:21:22.296Z,62.38
2022-10-10T13:26:43.801Z,62.46
2022-10-10T13:29:44.637Z,62.38
2022-10-10T13:32:14.983Z,62.38
2022-10-10T13:34:46.465Z,62.60
2022-10-10T13:37:18.808Z,62.50
2022-10-10T13:39:45.837Z,62.64
2022-10-10T13:42:27.170Z,63.07
2022-10-10T13:44:55.919Z,62.70
2022-10-10T13:48:00.826Z,62.33
2022-10-10T13:50:30.225Z,62.22
2022-10-10T13:53:15.467Z,61.94
2022-10-10T13:55:42.044Z,61.57
2022-10-10T13:58:10.471Z,61.83
2022-10-10T14:00:37.870Z,61.87
2022-10-10T14:03:18.415Z,61.71
2022-10-10T14:05:46.754Z,61.39
2022-10-10T14:08:18.740Z,61.25
2022-10-10T14:11:07.042Z,61.03
2022-10-10T14:13:37.299Z,61.37
2022-10-10T14:16:21.540Z,61.13
2022-10-10T14:18:48.125Z,61.00
2022-10-10T14:21:14.797Z,61.34
2022-10-10T14:23:41.456Z,61.05
2022-10-10T14:26:15.796Z,60.80
2022-10-10T14:28:42.569Z,60.78
2022-10-10T14:31:09.500Z,60.44
2022-10-10T14:33:36.398Z,60.61
2022-10-10T14:36:04.280Z,60.29
2022-10-10T14:38:31.190Z,60.69
2022-10-10T14:40:57.958Z,60.68
2022-10-10T14:43:24.739Z,60.73
2022-10-10T14:45:53.381Z,60.76
2022-10-10T14:48:20.527Z,60.88
2022-10-10T14:50:48.763Z,60.78
2022-10-10T14:53:15.708Z,60.81
2022-10-10T14:55:43.617Z,60.84
2022-10-10T14:58:15.192Z,60.61
2022-10-10T15:00:41.919Z,60.77
2022-10-10T15:03:08.745Z,60.79
2022-10-10T15:05:35.374Z,60.79
2022-10-10T15:08:01.946Z,60.68
2022-10-10T15:10:33.789Z,60.71
2022-10-10T15:13:01.676Z,60.86
2022-10-10T15:15:28.279Z,60.40
2022-10-10T15:17:57.189Z,60.89
2022-10-10T15:20:30.761Z,60.89
2022-10-10T15:22:59.702Z,61.22
2022-10-10T15:25:33.102Z,61.07
2022-10-10T15:28:01.468Z,60.99
2022-10-10T15:30:28.636Z,61.06
2022-10-10T15:32:55.257Z,60.97
2022-10-10T15:35:24.475Z,60.98
2022-10-10T15:37:51.137Z,61.11
2022-10-10T15:40:21.395Z,61.22
2022-10-10T15:42:49.049Z,60.95
2022-10-10T15:45:26.530Z,61.04
2022-10-10T15:48:02.211Z,61.14
2022-10-10T15:50:28.809Z,61.20
2022-10-10T15:52:55.359Z,61.25
2022-10-10T15:55:21.917Z,61.38
2022-10-10T15:57:48.480Z,61.31
2022-10-10T16:00:15.849Z,61.43
2022-10-10T16:02:42.554Z,61.30
2022-10-10T16:05:10.155Z,61.56
2022-10-10T16:07:46.665Z,61.31
2022-10-10T16:10:14.607Z,61.19
2022-10-10T16:12:41.434Z,61.38
2022-10-10T16:15:08.533Z,61.49
2022-10-10T16:17:35.205Z,61.55
2022-10-10T16:20:02.175Z,61.89
2022-10-10T16:22:28.821Z,61.54
2022-10-10T16:27:43.776Z,60.87
2022-10-10T16:30:11.387Z,60.83
2022-10-10T16:32:42.110Z,60.82
2022-10-10T16:35:10.629Z,60.93
2022-10-10T16:37:37.936Z,60.78
2022-10-10T16:40:05.613Z,60.61
2022-10-10T16:42:32.391Z,60.44
2022-10-10T16:44:59.190Z,60.66
2022-10-10T16:47:25.941Z,60.70
2022-10-10T16:49:52.691Z,60.63
2022-10-10T16:52:19.456Z,61.11
2022-10-10T16:54:49.956Z,60.61
2022-10-10T16:57:18.545Z,60.64
2022-10-10T16:59:45.253Z,60.45
2022-10-10T17:02:12.175Z,60.22
2022-10-10T17:04:38.820Z,60.30
2022-10-10T17:07:05.625Z,60.62
2022-10-10T17:09:32.454Z,60.50
2022-10-10T17:11:59.209Z,60.76
2022-10-10T17:14:25.881Z,60.57
2022-10-10T17:17:11.086Z,60.70
2022-10-10T17:19:38.206Z,60.26
2022-10-10T17:22:05.023Z,60.40
2022-10-10T17:24:31.788Z,60.44
2022-10-10T17:26:58.549Z,60.92
2022-10-10T17:29:25.416Z,61.04
2022-10-10T17:31:52.249Z,60.86
2022-10-10T17:34:19.349Z,60.80
2022-10-10T17:36:46.994Z,61.15
2022-10-10T17:39:13.937Z,61.11
2022-10-10T17:41:41.041Z,60.95
2022-10-10T17:44:10.813Z,61.26
2022-10-10T17:46:38.554Z,61.22
2022-10-10T17:49:08.475Z,61.17
2022-10-10T17:51:36.402Z,61.35
2022-10-10T17:54:04.426Z,61.31
2022-10-10T17:56:32.071Z,61.12
2022-10-10T17:59:02.425Z,61.13
2022-10-10T18:01:33.137Z,61.19
2022-10-10T18:04:00.582Z,61.10
2022-10-10T18:06:29.151Z,61.03
2022-10-10T18:08:56.445Z,61.54
2022-10-10T18:11:27.104Z,61.30
2022-10-10T18:13:56.371Z,61.29
2022-10-10T18:16:23.062Z,61.20
2022-10-10T18:18:51.905Z,61.11
2022-10-10T18:21:21.827Z,61.35
2022-10-10T18:23:49.092Z,61.13
2022-10-10T18:26:21.714Z,61.32
2022-10-10T18:28:49.859Z,61.25
2022-10-10T18:31:33.105Z,61.50
2022-10-10T18:34:00.745Z,61.46
2022-10-10T18:36:30.010Z,61.31
2022-10-10T18:39:00.820Z,61.57
2022-10-10T18:41:33.786Z,61.34
2022-10-10T18:44:03.003Z,61.46
2022-10-10T18:46:30.413Z,61.47
2022-10-10T18:48:57.266Z,61.53
2022-10-10T18:51:26.474Z,61.59
2022-10-10T18:53:57.113Z,61.60
2022-10-10T18:56:26.778Z,61.46
2022-10-10T18:58:56.730Z,61.58
2022-10-10T19:01:25.690Z,61.49
2022-10-10T19:03:53.986Z,61.47
2022-10-10T19:06:22.672Z,61.59
2022-10-10T19:08:51.606Z,61.46
2022-10-10T19:11:21.761Z,61.50
2022-10-10T19:13:49.239Z,61.57
2022-10-10T19:16:16.385Z,61.55
2022-10-10T19:18:43.210Z,61.75
2022-10-10T19:21:10.347Z,61.57
2022-10-10T19:23:37.727Z,61.69
2022-10-10T19:26:06.956Z,61.51
2022-10-10T19:28:34.338Z,61.67
2022-10-10T19:31:20.194Z,61.66
2022-10-10T19:33:52.325Z,61.78
2022-10-10T19:36:19.085Z,61.57
2022-10-10T19:38:46.432Z,61.77
2022-10-10T19:41:14.322Z,61.76
2022-10-10T19:43:46.674Z,61.62
2022-10-10T19:46:15.091Z,61.56
2022-10-10T19:48:42.061Z,61.46
2022-10-10T19:51:12.043Z,61.62
2022-10-10T19:53:57.615Z,61.72
2022-10-10T19:56:25.712Z,61.61
2022-10-10T19:58:54.953Z,61.55
2022-10-10T20:01:26.851Z,61.68
2022-10-10T20:03:56.256Z,61.73
2022-10-10T20:06:23.393Z,61.62
2022-10-10T20:08:50.390Z,61.68
2022-10-10T20:11:19.294Z,61.67
2022-10-10T20:13:46.567Z,61.67
2022-10-10T20:16:13.695Z,61.96
2022-10-10T20:18:42.307Z,61.92
2022-10-10T20:21:16.478Z,61.69
2022-10-10T20:23:47.111Z,61.95
2022-10-10T20:26:17.612Z,62.08
2022-10-10T20:28:45.898Z,62.05
2022-10-10T20:31:15.351Z,61.91
2022-10-10T20:33:42.610Z,62.07
2022-10-10T20:36:09.800Z,62.37
2022-10-10T20:38:36.969Z,62.13
2022-10-10T20:41:06.953Z,62.23
2022-10-10T20:43:34.778Z,61.72
2022-10-10T20:46:09.897Z,61.74
2022-10-10T20:48:37.111Z,61.49
2022-10-10T20:51:11.779Z,61.44
2022-10-10T20:53:41.850Z,61.26
2022-10-10T20:56:11.009Z,61.60
2022-10-10T20:58:39.235Z,61.37
2022-10-10T21:01:14.890Z,61.50
2022-10-10T21:03:43.621Z,61.58
2022-10-10T21:06:11.891Z,61.46
2022-10-10T21:08:39.535Z,61.19
2022-10-10T21:11:08.875Z,61.00
2022-10-10T21:13:36.231Z,61.43
2022-10-10T21:16:07.330Z,61.15
2022-10-10T21:18:34.333Z,61.13
2022-10-10T21:21:02.606Z,60.94
2022-10-10T21:23:32.851Z,61.15
2022-10-10T21:26:08.324Z,61.21
2022-10-10T21:28:35.977Z,60.97
2022-10-10T21:31:03.312Z,61.19
2022-10-10T21:33:30.767Z,61.23
2022-10-10T21:35:58.312Z,61.13
2022-10-10T21:38:25.574Z,61.43
2022-10-10T21:40:52.945Z,61.39
2022-10-10T21:43:19.799Z,61.74
2022-10-10T21:45:46.602Z,61.48
2022-10-10T21:48:13.508Z,61.19
2022-10-10T21:50:40.638Z,61.10
2022-10-10T21:53:08.371Z,61.13
2022-10-10T21:55:38.857Z,61.22
2022-10-10T21:58:05.640Z,61.04
2022-10-10T22:00:32.760Z,61.44
2022-10-10T22:02:59.364Z,61.52
2022-10-10T22:05:26.062Z,61.56
2022-10-10T22:07:52.810Z,61.31
2022-10-10T22:10:19.672Z,61.52
2022-10-10T22:12:46.717Z,61.63
2022-10-10T22:15:14.064Z,61.59
2022-10-10T22:17:41.184Z,61.47
2022-10-10T22:20:09.652Z,61.45
2022-10-10T22:22:41.798Z,61.44
2022-10-10T22:25:14.465Z,61.62
2022-10-10T22:27:41.897Z,61.52
2022-10-10T22:30:10.369Z,61.59
2022-10-10T22:32:37.123Z,61.41
2022-10-10T22:35:04.348Z,61.79
2022-10-10T22:37:30.969Z,61.52
2022-10-10T22:39:57.583Z,61.63
2022-10-10T22:42:24.259Z,61.44
2022-10-10T22:44:50.967Z,61.96
2022-10-10T22:47:17.665Z,62.03
2022-10-10T22:49:44.396Z,61.68
2022-10-10T22:52:11.358Z,61.81
2022-10-10T22:54:38.152Z,62.12
2022-10-10T22:57:04.909Z,62.40
2022-10-10T22:59:31.547Z,62.05
2022-10-10T23:01:58.049Z,62.36
2022-10-10T23:04:24.657Z,62.08
2022-10-10T23:06:51.482Z,62.42
2022-10-10T23:09:18.220Z,62.35
2022-10-10T23:11:44.766Z,62.44
2022-10-10T23:14:11.246Z,63.31
2022-10-10T23:16:40.708Z,62.76
2022-10-10T23:19:07.859Z,63.05
2022-10-10T23:21:34.709Z,62.92
2022-10-10T23:24:01.402Z,62.87
2022-10-10T23:26:28.043Z,63.16
2022-10-10T23:28:54.719Z,62.83
2022-10-10T23:31:21.406Z,63.27
2022-10-10T23:33:49.571Z,63.19
2022-10-10T23:36:16.416Z,63.14
2022-10-10T23:38:43.578Z,63.21
2022-10-10T23:41:11.770Z,63.15
2022-10-10T23:43:38.921Z,63.11
2022-10-10T23:46:06.303Z,63.27
2022-10-10T23:48:33.231Z,63.04
2022-10-10T23:51:00.017Z,63.33
2022-10-10T23:53:26.555Z,63.29
2022-10-10T23:55:53.214Z,63.15
2022-10-10T23:58:19.939Z,63.22
